RJCW/WKJ METAR and TAF weather

Enter ICAO airport designator
Station Type Date Time Source
RJCW METAR 2021/01/22 06:00 UTC NOAA

RJCW 220600Z 32025KT 0200 R08/0350V1100D BLSN SHSN VV003 M06/M08 Q1014


Station Type Date Time Source
RJCW Decoded METAR 2021/01/22 06:00 UTC NOAA

Wakkanai Airport, Japan (RJCW) 45-24N 141-48E 11M
Jan 22, 2021 - 01:00 AM EST / 2021.01.22 0600 UTC
Wind: from the NW (320 degrees) at 29 MPH (25 KT) (direction variable):0
Visibility: less than 1 mile:0
Sky conditions: obscured
Weather: blowing snow; snow showers
Temperature: 21 F (-6 C)
Windchill: 3 F (-16 C):1
Dew Point: 17 F (-8 C)
Relative Humidity: 85%
Pressure (altimeter): 29.94 in. Hg (1014 hPa)
ob: RJCW 220600Z 32025KT 0200 R08/0350V1100D BLSN SHSN VV003 M06/M08 Q1014
cycle: 6

Station Type Date Time Source
RJCW TAF UTC NOAA

Error!

Example: see airport list